Terminal Aerodrome Forecast
Issued by NWS

Home | Current Version | Previous Version | Text Only | Print | Product List | Glossary On
Versions: 1 2 3 4 5 6 7 8 9 10 11 12 13 14 15 16 17 18 19 20 21 22 23 24 25 26 27 28 29 30 31 32 33 34 35 36 37 38 39 40 41 42 43 44 45 46 47 48 49 50
000
FTUS44 KHGX 240529
TAFCXO
TAF
KCXO 240529Z 2406/2506 06003KT P6SM SKC
     FM240700 00000KT 3SM BR SKC
      TEMPO 2409/2412 1SM BR VV003
     FM241500 13004KT P6SM SCT015
     FM241630 09005KT P6SM SCT035
     FM241900 10006KT P6SM VCSH SCT040
     FM250100 12005KT P6SM SCT250
      AMD NOT SKED=

USA.gov is the U.S. government's official web portal to all federal, state and local government web resources and services.